createdAt,value
2017-04-30T00:00:23.213Z,67.73
2017-04-30T00:02:53.716Z,67.79
2017-04-30T00:05:25.105Z,67.75
2017-04-30T00:07:55.993Z,67.65
2017-04-30T00:10:26.729Z,67.85
2017-04-30T00:12:57.567Z,67.52
2017-04-30T00:15:28.603Z,67.12
2017-04-30T00:17:59.645Z,67.40
2017-04-30T00:20:30.073Z,67.59
2017-04-30T00:23:00.923Z,67.50
2017-04-30T00:25:31.376Z,67.15
2017-04-30T00:28:02.333Z,67.84
2017-04-30T00:30:33.310Z,68.07
2017-04-30T00:33:03.429Z,68.28
2017-04-30T00:35:34.124Z,68.14
2017-04-30T00:38:05.014Z,68.40
2017-04-30T00:40:36.043Z,69.01
2017-04-30T00:43:07.094Z,68.62
2017-04-30T00:45:38.071Z,69.17
2017-04-30T00:48:08.310Z,69.44
2017-04-30T00:50:39.077Z,69.70
2017-04-30T00:53:09.979Z,70.17
2017-04-30T00:55:40.919Z,70.40
2017-04-30T00:58:11.915Z,70.33
2017-04-30T01:00:42.945Z,70.13
2017-04-30T01:03:13.852Z,69.08
2017-04-30T01:05:44.373Z,69.32
2017-04-30T01:08:15.342Z,69.44
2017-04-30T01:10:46.195Z,69.38
2017-04-30T01:13:17.017Z,68.90
2017-04-30T01:15:47.882Z,69.49
2017-04-30T01:18:18.647Z,69.41
2017-04-30T01:20:49.326Z,69.27
2017-04-30T01:23:19.696Z,69.37
2017-04-30T01:25:50.438Z,69.49
2017-04-30T01:28:21.007Z,69.95
2017-04-30T01:30:51.921Z,70.04
2017-04-30T01:33:23.001Z,70.46
2017-04-30T01:35:53.944Z,70.43
2017-04-30T01:38:24.985Z,70.53
2017-04-30T01:40:55.926Z,70.41
2017-04-30T01:43:26.571Z,70.62
2017-04-30T01:45:57.205Z,70.62
2017-04-30T01:48:27.957Z,70.10
2017-04-30T01:50:59.091Z,69.27
2017-04-30T01:53:29.928Z,69.07
2017-04-30T01:56:00.560Z,69.68
2017-04-30T01:58:31.492Z,69.62
2017-04-30T02:01:02.147Z,69.98
2017-04-30T02:03:32.874Z,69.99
2017-04-30T02:06:03.614Z,70.39
2017-04-30T02:08:34.434Z,70.22
2017-04-30T02:11:05.333Z,70.58
2017-04-30T02:13:36.016Z,71.30
2017-04-30T02:16:06.822Z,71.22
2017-04-30T02:18:37.779Z,71.11
2017-04-30T02:21:09.032Z,71.01
2017-04-30T02:23:39.856Z,71.11
2017-04-30T02:26:10.306Z,71.14
2017-04-30T02:28:41.320Z,70.64
2017-04-30T02:31:12.276Z,70.55
2017-04-30T02:33:42.724Z,70.63
2017-04-30T02:36:13.684Z,70.54
2017-04-30T02:38:44.401Z,70.44
2017-04-30T02:41:15.263Z,70.49
2017-04-30T02:43:46.282Z,69.64
2017-04-30T02:46:17.273Z,69.60
2017-04-30T02:48:47.976Z,70.11
2017-04-30T02:51:19.155Z,69.98
2017-04-30T02:53:50.005Z,70.66
2017-04-30T02:56:21.021Z,71.24
2017-04-30T02:58:51.965Z,71.01
2017-04-30T03:01:22.901Z,71.21
2017-04-30T03:03:53.640Z,71.44
2017-04-30T03:06:24.676Z,71.61
2017-04-30T03:08:55.702Z,71.92
2017-04-30T03:11:26.657Z,71.44
2017-04-30T03:13:57.533Z,72.15
2017-04-30T03:16:28.296Z,71.97
2017-04-30T03:18:58.815Z,71.78
2017-04-30T03:21:29.604Z,72.16
2017-04-30T03:24:00.510Z,71.96
2017-04-30T03:26:31.436Z,71.32
2017-04-30T03:29:02.325Z,71.36
2017-04-30T03:31:33.460Z,71.54
2017-04-30T03:34:04.149Z,72.11
2017-04-30T03:36:35.082Z,71.67
2017-04-30T03:39:17.157Z,71.97
2017-04-30T03:42:05.200Z,72.05
2017-04-30T03:44:53.273Z,72.31
2017-04-30T03:47:41.507Z,72.48
2017-04-30T03:50:29.172Z,72.26
2017-04-30T03:53:17.114Z,72.03
2017-04-30T03:56:04.633Z,71.75
2017-04-30T03:58:52.419Z,72.02
2017-04-30T04:01:40.204Z,72.42
2017-04-30T04:04:27.938Z,72.27
2017-04-30T04:07:15.769Z,71.94
2017-04-30T04:10:03.498Z,72.47
2017-04-30T04:12:51.311Z,71.80
2017-04-30T04:15:39.357Z,71.93
2017-04-30T04:18:27.477Z,72.38
2017-04-30T04:21:15.113Z,72.41
2017-04-30T04:24:02.935Z,72.35
2017-04-30T04:26:50.669Z,72.03
2017-04-30T04:29:38.317Z,72.58
2017-04-30T04:32:25.928Z,72.88
2017-04-30T04:35:13.678Z,72.97
2017-04-30T04:38:01.454Z,72.95
2017-04-30T04:40:50.401Z,73.04
2017-04-30T04:43:38.129Z,72.67
2017-04-30T04:46:25.677Z,72.71
2017-04-30T04:49:13.407Z,72.28
2017-04-30T04:52:01.404Z,72.27
2017-04-30T04:54:48.993Z,71.98
2017-04-30T04:57:36.791Z,71.09
2017-04-30T05:00:24.315Z,71.60
2017-04-30T05:03:12.074Z,71.26
2017-04-30T05:06:00.201Z,71.35
2017-04-30T05:08:48.030Z,71.13
2017-04-30T05:11:35.932Z,71.12
2017-04-30T05:14:23.779Z,71.05
2017-04-30T05:17:11.651Z,71.10
2017-04-30T05:19:59.464Z,69.92
2017-04-30T05:22:47.221Z,69.68
2017-04-30T05:25:34.929Z,70.24
2017-04-30T05:28:22.550Z,70.99
2017-04-30T05:31:10.711Z,70.95
2017-04-30T05:33:58.632Z,69.41
2017-04-30T05:36:46.369Z,69.59
2017-04-30T05:39:34.124Z,69.48
2017-04-30T05:42:23.332Z,69.61
2017-04-30T05:45:11.524Z,68.78
2017-04-30T05:47:59.101Z,68.54
2017-04-30T05:50:47.091Z,68.91
2017-04-30T05:53:36.645Z,69.05
2017-04-30T05:56:25.015Z,68.99
2017-04-30T05:59:13.028Z,68.66
2017-04-30T06:02:02.590Z,68.74
2017-04-30T06:04:53.679Z,68.61
2017-04-30T06:07:42.270Z,68.50
2017-04-30T06:10:33.002Z,68.40
2017-04-30T06:13:23.568Z,67.69
2017-04-30T06:16:13.810Z,67.81
2017-04-30T06:19:04.117Z,67.23
2017-04-30T06:21:54.156Z,66.21
2017-04-30T06:24:44.479Z,66.56
2017-04-30T06:27:32.773Z,65.94
2017-04-30T06:30:22.560Z,64.87
2017-04-30T06:33:13.378Z,64.55
2017-04-30T06:36:03.593Z,63.44
2017-04-30T06:38:54.408Z,63.39
2017-04-30T06:41:44.301Z,63.38
2017-04-30T06:44:34.410Z,62.86
2017-04-30T06:47:22.945Z,61.24
2017-04-30T06:50:10.570Z,61.48
2017-04-30T06:52:58.597Z,59.54
2017-04-30T06:55:46.165Z,59.93
2017-04-30T06:58:33.874Z,58.61
2017-04-30T07:01:21.587Z,58.04
2017-04-30T07:04:10.444Z,57.19
2017-04-30T07:06:58.553Z,57.10
2017-04-30T07:09:46.159Z,56.21
2017-04-30T07:12:33.969Z,53.66
2017-04-30T07:15:22.503Z,52.28
2017-04-30T07:18:10.508Z,52.26
2017-04-30T07:21:00.679Z,50.56
2017-04-30T07:23:51.455Z,50.75
2017-04-30T07:26:40.445Z,50.95
2017-04-30T07:29:29.915Z,49.28
2017-04-30T07:32:18.922Z,48.95
2017-04-30T07:35:07.268Z,49.72
2017-04-30T07:37:55.817Z,50.23
2017-04-30T07:40:44.295Z,48.52
2017-04-30T07:43:22.462Z,49.61
2017-04-30T07:45:56.009Z,49.13
2017-04-30T07:48:29.468Z,49.00
2017-04-30T07:51:02.459Z,48.23
2017-04-30T07:53:35.013Z,46.97
2017-04-30T07:56:06.595Z,46.21
2017-04-30T07:58:39.365Z,46.25
2017-04-30T08:01:11.297Z,45.94
2017-04-30T08:03:43.903Z,45.83
2017-04-30T08:06:16.399Z,44.80
2017-04-30T08:08:48.461Z,46.04
2017-04-30T08:11:22.682Z,44.02
2017-04-30T08:13:56.762Z,45.42
2017-04-30T08:16:29.788Z,44.40
2017-04-30T08:19:01.973Z,43.38
2017-04-30T08:21:33.966Z,43.98
2017-04-30T08:24:08.318Z,44.98
2017-04-30T08:26:41.069Z,45.71
2017-04-30T08:29:12.902Z,45.54
2017-04-30T08:31:44.943Z,44.36
2017-04-30T08:34:17.037Z,43.66
2017-04-30T08:36:49.956Z,44.50
2017-04-30T08:39:23.547Z,44.54
2017-04-30T08:41:56.755Z,43.75
2017-04-30T08:44:28.633Z,42.52
2017-04-30T08:47:00.803Z,43.63
2017-04-30T08:49:32.053Z,44.11
2017-04-30T08:52:04.831Z,42.17
2017-04-30T08:54:36.320Z,41.93
2017-04-30T08:57:09.337Z,42.40
2017-04-30T08:59:41.345Z,42.56
2017-04-30T09:02:14.066Z,42.42
2017-04-30T09:04:46.021Z,41.75
2017-04-30T09:07:20.450Z,41.58
2017-04-30T09:09:52.410Z,41.85
2017-04-30T09:12:26.420Z,40.20
2017-04-30T09:14:58.182Z,41.04
2017-04-30T09:17:30.155Z,41.36
2017-04-30T09:20:03.029Z,42.42
2017-04-30T09:22:34.575Z,38.03
2017-04-30T09:25:05.688Z,40.20
2017-04-30T09:27:36.737Z,39.72
2017-04-30T09:30:07.889Z,38.50
2017-04-30T09:32:38.730Z,39.18
2017-04-30T09:35:09.788Z,39.66
2017-04-30T09:37:43.101Z,39.96
2017-04-30T09:40:14.021Z,39.53
2017-04-30T09:42:44.941Z,39.97
2017-04-30T09:45:15.834Z,40.20
2017-04-30T09:47:46.923Z,39.88
2017-04-30T09:50:19.627Z,39.75
2017-04-30T09:52:50.855Z,40.25
2017-04-30T09:55:21.972Z,39.31
2017-04-30T09:57:53.570Z,40.73
2017-04-30T10:00:24.714Z,39.69
2017-04-30T10:02:58.075Z,39.31
2017-04-30T10:05:29.053Z,39.45
2017-04-30T10:08:00.118Z,39.01
2017-04-30T10:10:31.140Z,39.58
2017-04-30T10:13:02.917Z,39.29
2017-04-30T10:15:33.832Z,39.34
2017-04-30T10:18:04.875Z,39.27
2017-04-30T10:20:35.815Z,39.45
2017-04-30T10:23:06.684Z,39.40
2017-04-30T10:25:37.530Z,39.10
2017-04-30T10:28:08.505Z,38.91
2017-04-30T10:30:39.502Z,39.03
2017-04-30T10:33:10.556Z,39.07
2017-04-30T10:35:41.581Z,39.26
2017-04-30T10:38:12.426Z,39.03
2017-04-30T10:40:43.468Z,39.79
2017-04-30T10:43:14.498Z,40.51
2017-04-30T10:45:45.397Z,39.94
2017-04-30T10:48:16.269Z,39.67
2017-04-30T10:50:47.292Z,39.07
2017-04-30T10:53:18.230Z,39.02
2017-04-30T10:55:49.105Z,40.09
2017-04-30T10:58:20.018Z,39.11
2017-04-30T11:00:50.939Z,37.45
2017-04-30T11:03:21.995Z,38.87
2017-04-30T11:05:53.326Z,38.89
2017-04-30T11:08:24.279Z,39.54
2017-04-30T11:10:55.303Z,39.66
2017-04-30T11:13:27.076Z,38.36
2017-04-30T11:15:58.001Z,38.51
2017-04-30T11:18:28.941Z,38.91
2017-04-30T11:21:00.096Z,38.31
2017-04-30T11:23:31.086Z,37.59
2017-04-30T11:26:02.114Z,37.54
2017-04-30T11:28:33.057Z,38.46
2017-04-30T11:31:03.890Z,38.77
2017-04-30T11:33:34.800Z,38.69
2017-04-30T11:36:05.619Z,37.97
2017-04-30T11:38:36.900Z,38.41
2017-04-30T11:41:07.750Z,38.51
2017-04-30T11:43:38.757Z,38.37
2017-04-30T11:46:09.622Z,38.30
2017-04-30T11:48:40.701Z,38.80
2017-04-30T11:51:11.820Z,38.03
2017-04-30T11:53:42.855Z,38.50
2017-04-30T11:56:13.838Z,38.24
2017-04-30T11:58:44.728Z,36.58
2017-04-30T12:01:15.609Z,36.79
2017-04-30T12:03:46.476Z,37.70
2017-04-30T12:06:17.270Z,36.54
2017-04-30T12:08:48.144Z,37.01
2017-04-30T12:11:18.941Z,38.42
2017-04-30T12:13:51.038Z,38.30
2017-04-30T12:16:22.231Z,36.48
2017-04-30T12:18:53.098Z,35.87
2017-04-30T12:21:23.969Z,37.78
2017-04-30T12:23:54.796Z,39.26
2017-04-30T12:26:25.686Z,38.68
2017-04-30T12:28:56.527Z,38.47
2017-04-30T12:31:27.393Z,38.16
2017-04-30T12:33:58.235Z,36.24
2017-04-30T12:36:29.089Z,36.83
2017-04-30T12:38:59.945Z,38.09
2017-04-30T12:41:30.817Z,37.83
2017-04-30T12:44:01.626Z,39.07
2017-04-30T12:46:32.603Z,37.33
2017-04-30T12:49:04.457Z,38.32
2017-04-30T12:51:35.917Z,37.55
2017-04-30T12:54:06.875Z,35.94
2017-04-30T12:56:38.099Z,37.25
2017-04-30T12:59:09.159Z,38.37
2017-04-30T13:01:40.176Z,37.39
2017-04-30T13:04:11.126Z,36.99
2017-04-30T13:06:42.155Z,37.11
2017-04-30T13:09:13.001Z,34.81
2017-04-30T13:11:43.725Z,34.81
2017-04-30T13:14:14.675Z,34.78
2017-04-30T13:16:45.703Z,36.49
2017-04-30T13:19:16.762Z,37.49
2017-04-30T13:21:47.784Z,36.46
2017-04-30T13:24:18.653Z,36.81
2017-04-30T13:26:49.642Z,37.51
2017-04-30T13:29:20.618Z,38.06
2017-04-30T13:31:51.796Z,38.60
2017-04-30T13:34:22.894Z,37.39
2017-04-30T13:36:53.944Z,36.79
2017-04-30T13:39:24.864Z,37.56
2017-04-30T13:41:55.921Z,37.32
2017-04-30T13:44:26.752Z,36.79
2017-04-30T13:46:57.818Z,38.20
2017-04-30T13:49:28.623Z,37.90
2017-04-30T13:51:59.558Z,37.25
2017-04-30T13:54:30.371Z,37.32
2017-04-30T13:57:01.309Z,37.66
2017-04-30T13:59:32.423Z,37.82
2017-04-30T14:02:03.444Z,37.95
2017-04-30T14:04:34.377Z,35.99
2017-04-30T14:07:05.463Z,34.89
2017-04-30T14:09:36.512Z,36.64
2017-04-30T14:12:08.390Z,37.59
2017-04-30T14:14:39.419Z,37.77
2017-04-30T14:17:10.541Z,36.59
2017-04-30T14:19:41.494Z,37.57
2017-04-30T14:22:12.622Z,38.00
2017-04-30T14:24:43.459Z,38.41
2017-04-30T14:27:14.409Z,38.55
2017-04-30T14:29:45.553Z,37.66
2017-04-30T14:32:16.682Z,37.62
2017-04-30T14:34:47.491Z,38.04
2017-04-30T14:37:18.454Z,37.80
2017-04-30T14:39:49.409Z,37.79
2017-04-30T14:42:20.398Z,37.67
2017-04-30T14:44:51.384Z,36.99
2017-04-30T14:47:22.513Z,37.35
2017-04-30T14:49:53.386Z,37.20
2017-04-30T14:52:24.447Z,37.81
2017-04-30T14:54:55.448Z,37.72
2017-04-30T14:57:26.468Z,37.51
2017-04-30T14:59:57.309Z,37.65
2017-04-30T15:02:28.424Z,37.96
2017-04-30T15:04:59.394Z,37.58
2017-04-30T15:07:30.414Z,37.60
2017-04-30T15:10:01.279Z,37.59
2017-04-30T15:12:33.573Z,37.91
2017-04-30T15:15:04.614Z,37.01
2017-04-30T15:17:35.749Z,37.21
2017-04-30T15:20:06.907Z,37.14
2017-04-30T15:22:37.872Z,36.82
2017-04-30T15:25:08.861Z,37.60
2017-04-30T15:27:39.916Z,37.49
2017-04-30T15:30:10.883Z,38.10
2017-04-30T15:32:41.910Z,37.76
2017-04-30T15:35:13.007Z,38.09
2017-04-30T15:37:43.973Z,38.07
2017-04-30T15:40:14.926Z,38.08
2017-04-30T15:42:46.042Z,38.75
2017-04-30T15:45:17.118Z,38.95
2017-04-30T15:47:48.466Z,38.78
2017-04-30T15:50:19.389Z,39.27
2017-04-30T15:52:50.653Z,38.51
2017-04-30T15:55:21.567Z,38.29
2017-04-30T15:57:52.639Z,38.97
2017-04-30T16:00:23.570Z,39.23
2017-04-30T16:02:54.602Z,39.30
2017-04-30T16:05:25.560Z,39.46
2017-04-30T16:08:00.012Z,39.39
2017-04-30T16:10:34.074Z,39.19
2017-04-30T16:13:07.866Z,39.84
2017-04-30T16:15:41.001Z,40.51
2017-04-30T16:18:13.763Z,39.42
2017-04-30T16:20:45.803Z,39.78
2017-04-30T16:23:17.197Z,40.14
2017-04-30T16:25:50.450Z,39.95
2017-04-30T16:28:24.581Z,39.69
2017-04-30T16:30:57.268Z,40.24
2017-04-30T16:33:30.411Z,40.68
2017-04-30T16:36:03.258Z,40.77
2017-04-30T16:38:35.435Z,40.24
2017-04-30T16:41:07.222Z,40.27
2017-04-30T16:43:39.550Z,40.86
2017-04-30T16:46:12.729Z,40.08
2017-04-30T16:48:45.186Z,40.60
2017-04-30T16:51:17.024Z,40.49
2017-04-30T16:53:49.824Z,40.48
2017-04-30T16:56:21.740Z,41.03
2017-04-30T16:58:54.102Z,41.10
2017-04-30T17:01:26.564Z,40.44
2017-04-30T17:03:57.962Z,40.85
2017-04-30T17:06:30.346Z,41.56
2017-04-30T17:09:03.867Z,41.66
2017-04-30T17:11:37.104Z,41.48
2017-04-30T17:14:08.783Z,41.53
2017-04-30T17:16:39.816Z,41.82
2017-04-30T17:19:10.874Z,41.84
2017-04-30T17:21:43.586Z,41.69
2017-04-30T17:24:15.549Z,42.32
2017-04-30T17:26:46.693Z,41.98
2017-04-30T17:29:17.992Z,42.27
2017-04-30T17:31:49.691Z,42.49
2017-04-30T17:34:21.097Z,42.10
2017-04-30T17:36:52.343Z,42.37
2017-04-30T17:39:23.384Z,42.50
2017-04-30T17:41:53.969Z,42.93
2017-04-30T17:44:24.986Z,43.43
2017-04-30T17:46:55.842Z,43.20
2017-04-30T17:49:26.830Z,43.62
2017-04-30T17:51:57.981Z,43.58
2017-04-30T17:54:29.020Z,43.72
2017-04-30T17:57:00.056Z,43.95
2017-04-30T17:59:31.107Z,44.30
2017-04-30T18:02:02.252Z,44.34
2017-04-30T18:04:33.386Z,44.48
2017-04-30T18:07:04.422Z,44.59
2017-04-30T18:09:35.453Z,44.80
2017-04-30T18:12:06.327Z,44.71
2017-04-30T18:14:37.233Z,44.90
2017-04-30T18:17:08.140Z,45.21
2017-04-30T18:19:39.121Z,45.06
2017-04-30T18:22:12.419Z,45.16
2017-04-30T18:24:43.459Z,45.46
2017-04-30T18:27:17.052Z,45.69
2017-04-30T18:29:48.396Z,45.67
2017-04-30T18:32:19.544Z,45.94
2017-04-30T18:34:50.572Z,45.59
2017-04-30T18:37:21.622Z,45.70
2017-04-30T18:39:52.672Z,46.00
2017-04-30T18:42:23.698Z,46.12
2017-04-30T18:44:54.648Z,46.11
2017-04-30T18:47:25.656Z,46.33
2017-04-30T18:49:56.614Z,46.44
2017-04-30T18:52:27.593Z,46.71
2017-04-30T18:54:58.771Z,46.96
2017-04-30T18:57:32.238Z,47.04
2017-04-30T19:00:09.598Z,47.10
2017-04-30T19:02:42.967Z,47.31
2017-04-30T19:05:13.969Z,47.55
2017-04-30T19:07:44.866Z,47.76
2017-04-30T19:10:15.862Z,48.31
2017-04-30T19:12:46.908Z,48.45
2017-04-30T19:15:20.486Z,49.04
2017-04-30T19:17:54.701Z,48.98
2017-04-30T19:20:27.727Z,49.11
2017-04-30T19:23:02.619Z,49.56
2017-04-30T19:25:37.193Z,50.02
2017-04-30T19:28:11.664Z,50.39
2017-04-30T19:30:45.950Z,50.71
2017-04-30T19:33:21.324Z,51.01
2017-04-30T19:35:55.360Z,51.39
2017-04-30T19:38:30.717Z,51.68
2017-04-30T19:41:04.194Z,51.93
2017-04-30T19:43:37.849Z,52.21
2017-04-30T19:46:11.237Z,52.23
2017-04-30T19:48:45.130Z,52.08
2017-04-30T19:51:18.360Z,52.13
2017-04-30T19:53:50.390Z,52.30
2017-04-30T19:56:21.288Z,52.13
2017-04-30T19:58:53.130Z,51.76
2017-04-30T20:01:27.487Z,51.84
2017-04-30T20:04:00.954Z,51.87
2017-04-30T20:06:35.878Z,52.17
2017-04-30T20:09:07.365Z,52.22
2017-04-30T20:11:40.845Z,52.92
2017-04-30T20:14:15.347Z,52.77
2017-04-30T20:16:48.137Z,52.84
2017-04-30T20:19:21.118Z,52.95
2017-04-30T20:21:54.959Z,53.08
2017-04-30T20:24:30.296Z,53.34
2017-04-30T20:27:04.751Z,53.90
2017-04-30T20:29:39.472Z,54.02
2017-04-30T20:32:10.618Z,54.19
2017-04-30T20:34:43.384Z,54.65
2017-04-30T20:37:15.906Z,55.01
2017-04-30T20:39:49.089Z,55.53
2017-04-30T20:42:25.655Z,55.63
2017-04-30T20:44:57.908Z,55.95
2017-04-30T20:47:33.091Z,56.38
2017-04-30T20:50:06.821Z,56.41
2017-04-30T20:52:38.216Z,56.61
2017-04-30T20:55:10.617Z,56.63
2017-04-30T20:57:44.472Z,56.88
2017-04-30T21:00:17.653Z,57.13
2017-04-30T21:02:50.000Z,57.43
2017-04-30T21:05:24.813Z,57.70
2017-04-30T21:07:56.193Z,57.86
2017-04-30T21:10:30.037Z,57.92
2017-04-30T21:13:01.406Z,58.28
2017-04-30T21:15:34.084Z,58.48
2017-04-30T21:18:05.515Z,58.59
2017-04-30T21:20:36.459Z,58.75
2017-04-30T21:23:07.767Z,58.97
2017-04-30T21:25:38.710Z,59.27
2017-04-30T21:28:12.147Z,59.61
2017-04-30T21:30:44.268Z,59.49
2017-04-30T21:33:15.207Z,59.54
2017-04-30T21:35:46.196Z,59.70
2017-04-30T21:38:17.189Z,59.69
2017-04-30T21:40:48.069Z,59.57
2017-04-30T21:43:19.058Z,60.05
2017-04-30T21:45:50.055Z,60.24
2017-04-30T21:48:21.035Z,60.37
2017-04-30T21:50:51.946Z,60.58
2017-04-30T21:53:22.926Z,60.85
2017-04-30T21:55:53.816Z,61.02
2017-04-30T21:58:24.929Z,61.19
2017-04-30T22:00:55.881Z,61.16
2017-04-30T22:03:26.908Z,61.31
2017-04-30T22:05:57.953Z,61.32
2017-04-30T22:08:28.814Z,61.28
2017-04-30T22:10:59.827Z,61.67
2017-04-30T22:13:31.709Z,61.77
2017-04-30T22:16:02.733Z,61.96
2017-04-30T22:18:33.773Z,62.04
2017-04-30T22:21:04.808Z,62.11
2017-04-30T22:23:35.747Z,62.26
2017-04-30T22:26:06.663Z,62.59
2017-04-30T22:28:37.535Z,62.81
2017-04-30T22:31:08.493Z,62.85
2017-04-30T22:33:39.400Z,63.04
2017-04-30T22:36:10.408Z,63.25
2017-04-30T22:38:41.441Z,63.65
2017-04-30T22:41:12.551Z,63.65
2017-04-30T22:43:43.590Z,63.30
2017-04-30T22:46:14.578Z,63.66
2017-04-30T22:48:45.670Z,63.74
2017-04-30T22:51:16.654Z,63.79
2017-04-30T22:53:47.727Z,63.94
2017-04-30T22:56:18.725Z,64.14
2017-04-30T22:58:49.681Z,64.31
2017-04-30T23:01:20.777Z,64.14
2017-04-30T23:03:51.754Z,64.51
2017-04-30T23:06:22.759Z,64.35
2017-04-30T23:08:53.657Z,64.57
2017-04-30T23:11:24.643Z,64.49
2017-04-30T23:13:56.399Z,64.51
2017-04-30T23:16:27.359Z,64.78
2017-04-30T23:18:58.349Z,64.92
2017-04-30T23:21:29.258Z,65.03
2017-04-30T23:24:00.245Z,64.89
2017-04-30T23:26:31.261Z,64.81
2017-04-30T23:29:02.263Z,64.95
2017-04-30T23:31:33.240Z,65.21
2017-04-30T23:34:04.183Z,64.99
2017-04-30T23:36:35.167Z,65.16
2017-04-30T23:39:07.099Z,65.44
2017-04-30T23:41:38.099Z,65.29
2017-04-30T23:44:08.972Z,65.39
2017-04-30T23:46:40.116Z,65.42
2017-04-30T23:49:11.142Z,65.55
2017-04-30T23:51:42.033Z,65.66
2017-04-30T23:54:13.045Z,65.68
2017-04-30T23:56:43.977Z,65.85
2017-04-30T23:59:15.032Z,65.81
